createdAt,value
2022-10-18T00:02:15.006Z,14.76
2022-10-18T00:04:41.643Z,14.80
2022-10-18T00:07:08.190Z,14.87
2022-10-18T00:09:34.795Z,14.92
2022-10-18T00:12:01.435Z,14.95
2022-10-18T00:14:27.975Z,14.95
2022-10-18T00:16:54.731Z,14.87
2022-10-18T00:19:23.759Z,14.97
2022-10-18T00:21:52.584Z,14.96
2022-10-18T00:24:19.139Z,14.94
2022-10-18T00:26:45.701Z,14.95
2022-10-18T00:29:14.037Z,14.95
2022-10-18T00:31:41.145Z,14.87
2022-10-18T00:34:14.387Z,15.06
2022-10-18T00:36:42.003Z,15.12
2022-10-18T00:39:14.159Z,15.12
2022-10-18T00:41:40.715Z,15.09
2022-10-18T00:44:13.662Z,15.09
2022-10-18T00:46:43.006Z,15.09
2022-10-18T00:49:36.051Z,15.09
2022-10-18T00:52:16.605Z,15.11
2022-10-18T00:54:46.320Z,15.10
2022-10-18T00:57:14.302Z,15.16
2022-10-18T00:59:42.738Z,15.16
2022-10-18T01:02:09.643Z,15.18
2022-10-18T01:04:36.798Z,15.20
2022-10-18T01:07:12.335Z,15.19
2022-10-18T01:09:45.603Z,15.16
2022-10-18T01:12:47.829Z,15.20
2022-10-18T01:15:29.576Z,15.28
2022-10-18T01:18:18.245Z,15.35
2022-10-18T01:21:09.224Z,15.34
2022-10-18T01:24:13.182Z,15.31
2022-10-18T01:26:51.761Z,15.28
2022-10-18T01:29:39.088Z,15.21
2022-10-18T01:32:12.607Z,15.27
2022-10-18T01:34:43.129Z,15.26
2022-10-18T01:37:14.842Z,15.28
2022-10-18T01:39:45.800Z,15.46
2022-10-18T01:42:17.728Z,15.48
2022-10-18T01:44:46.927Z,15.36
2022-10-18T01:47:15.406Z,15.49
2022-10-18T01:49:42.266Z,15.51
2022-10-18T01:52:18.302Z,15.47
2022-10-18T01:54:50.881Z,15.47
2022-10-18T01:58:01.278Z,15.42
2022-10-18T02:00:42.235Z,15.41
2022-10-18T02:03:21.524Z,15.33
2022-10-18T02:05:57.536Z,15.30
2022-10-18T02:08:35.369Z,15.29
2022-10-18T02:11:08.530Z,15.33
2022-10-18T02:13:49.180Z,15.32
2022-10-18T02:16:29.179Z,15.32
2022-10-18T02:19:00.844Z,15.36
2022-10-18T02:21:28.761Z,15.31
2022-10-18T02:23:57.861Z,15.26
2022-10-18T02:26:24.965Z,15.18
2022-10-18T02:28:51.866Z,15.14
2022-10-18T02:31:40.159Z,15.05
2022-10-18T02:34:20.149Z,14.98
2022-10-18T02:36:51.728Z,14.82
2022-10-18T02:39:22.910Z,14.65
2022-10-18T02:41:49.544Z,14.60
2022-10-18T02:44:16.413Z,14.53
2022-10-18T02:46:43.135Z,14.52
2022-10-18T02:49:09.649Z,14.58
2022-10-18T02:51:36.268Z,14.52
2022-10-18T02:54:02.865Z,14.53
2022-10-18T02:56:29.437Z,14.48
2022-10-18T02:58:56.246Z,14.47
2022-10-18T03:01:22.918Z,14.40
2022-10-18T03:03:49.745Z,14.34
2022-10-18T03:06:16.304Z,14.20
2022-10-18T03:08:42.822Z,14.11
2022-10-18T03:11:09.370Z,14.07
2022-10-18T03:13:35.947Z,13.98
2022-10-18T03:16:02.610Z,13.90
2022-10-18T03:18:29.191Z,13.80
2022-10-18T03:20:55.946Z,13.74
2022-10-18T03:23:22.487Z,13.66
2022-10-18T03:25:49.098Z,13.54
2022-10-18T03:28:15.810Z,13.46
2022-10-18T03:30:42.377Z,13.42
2022-10-18T03:33:09.712Z,13.37
2022-10-18T03:35:36.422Z,13.25
2022-10-18T03:38:03.020Z,13.19
2022-10-18T03:43:01.258Z,13.05
2022-10-18T03:45:31.179Z,12.95
2022-10-18T03:47:58.229Z,13.02
2022-10-18T03:50:24.948Z,12.90
2022-10-18T03:52:51.485Z,12.92
2022-10-18T03:55:18.047Z,12.93
2022-10-18T03:57:44.606Z,12.89
2022-10-18T04:00:11.769Z,12.78
2022-10-18T04:02:38.340Z,12.85
2022-10-18T04:05:05.465Z,12.78
2022-10-18T04:07:32.146Z,12.81
2022-10-18T04:09:58.728Z,12.94
2022-10-18T04:12:25.447Z,12.95
2022-10-18T04:14:52.011Z,12.94
2022-10-18T04:17:18.565Z,12.89
2022-10-18T04:19:45.309Z,12.84
2022-10-18T04:22:12.378Z,12.77
2022-10-18T04:24:39.315Z,12.66
2022-10-18T04:27:07.126Z,12.66
2022-10-18T04:29:34.135Z,12.65
2022-10-18T04:32:00.780Z,12.47
2022-10-18T04:34:27.522Z,12.52
2022-10-18T04:36:54.477Z,12.55
2022-10-18T04:39:21.138Z,12.47
2022-10-18T04:41:47.760Z,12.51
2022-10-18T04:44:14.508Z,12.46
2022-10-18T04:46:41.061Z,12.41
2022-10-18T04:49:07.923Z,12.36
2022-10-18T04:51:34.492Z,12.39
2022-10-18T04:54:01.064Z,12.30
2022-10-18T04:56:27.657Z,12.37
2022-10-18T04:58:54.204Z,12.38
2022-10-18T05:01:20.866Z,12.31
2022-10-18T05:03:53.283Z,12.36
2022-10-18T05:06:20.446Z,12.43
2022-10-18T05:08:46.985Z,12.45
2022-10-18T05:11:13.755Z,12.55
2022-10-18T05:13:40.369Z,12.65
2022-10-18T05:16:07.536Z,12.67
2022-10-18T05:18:34.327Z,12.77
2022-10-18T05:21:00.925Z,12.89
2022-10-18T05:23:27.497Z,13.03
2022-10-18T05:25:54.301Z,13.10
2022-10-18T05:28:38.707Z,13.13
2022-10-18T05:31:08.672Z,13.18
2022-10-18T05:33:35.321Z,13.25
2022-10-18T05:36:01.956Z,13.22
2022-10-18T05:38:31.295Z,13.33
2022-10-18T05:40:59.185Z,13.40
2022-10-18T05:43:29.496Z,13.48
2022-10-18T05:45:56.157Z,13.53
2022-10-18T05:48:23.105Z,13.63
2022-10-18T05:50:49.699Z,13.56
2022-10-18T05:53:35.672Z,13.73
2022-10-18T05:56:04.046Z,13.75
2022-10-18T05:58:30.825Z,13.83
2022-10-18T06:01:01.670Z,13.88
2022-10-18T06:03:28.425Z,14.00
2022-10-18T06:06:04.036Z,14.02
2022-10-18T06:08:30.750Z,14.17
2022-10-18T06:10:59.441Z,14.27
2022-10-18T06:13:26.378Z,14.24
2022-10-18T06:15:57.551Z,14.43
2022-10-18T06:18:24.281Z,14.50
2022-10-18T06:20:57.213Z,14.59
2022-10-18T06:23:23.797Z,14.72
2022-10-18T06:25:50.317Z,14.83
2022-10-18T06:28:17.349Z,14.95
2022-10-18T06:30:44.686Z,15.07
2022-10-18T06:33:13.989Z,15.15
2022-10-18T06:35:40.701Z,15.17
2022-10-18T06:38:07.295Z,15.24
2022-10-18T06:40:37.994Z,15.29
2022-10-18T06:43:19.924Z,15.32
2022-10-18T06:45:47.516Z,15.40
2022-10-18T06:48:14.091Z,15.51
2022-10-18T06:50:40.716Z,15.68
2022-10-18T06:53:08.972Z,15.73
2022-10-18T06:55:36.329Z,15.90
2022-10-18T06:58:03.042Z,15.95
2022-10-18T07:00:29.725Z,16.19
2022-10-18T07:02:57.643Z,16.40
2022-10-18T07:05:24.282Z,16.77
2022-10-18T07:07:54.265Z,16.96
2022-10-18T07:10:24.252Z,17.09
2022-10-18T07:12:53.438Z,17.20
2022-10-18T07:15:24.296Z,17.24
2022-10-18T07:17:50.964Z,17.24
2022-10-18T07:20:17.813Z,17.19
2022-10-18T07:22:44.378Z,17.12
2022-10-18T07:25:11.060Z,17.15
2022-10-18T07:27:42.536Z,17.17
2022-10-18T07:30:11.188Z,17.35
2022-10-18T07:32:37.709Z,17.58
2022-10-18T07:35:04.542Z,17.96
2022-10-18T07:37:31.516Z,18.20
2022-10-18T07:39:58.373Z,18.24
2022-10-18T07:42:25.016Z,18.02
2022-10-18T07:44:51.629Z,17.84
2022-10-18T07:47:18.258Z,17.83
2022-10-18T07:49:44.901Z,17.75
2022-10-18T07:52:11.598Z,17.84
2022-10-18T07:54:38.302Z,17.86
2022-10-18T07:57:05.390Z,17.68
2022-10-18T07:59:32.232Z,17.77
2022-10-18T08:01:58.924Z,17.95
2022-10-18T08:04:25.579Z,17.95
2022-10-18T08:06:52.222Z,17.65
2022-10-18T08:09:18.712Z,17.66
2022-10-18T08:11:45.351Z,17.94
2022-10-18T08:14:12.051Z,17.91
2022-10-18T08:16:38.642Z,17.85
2022-10-18T08:19:05.185Z,17.77
2022-10-18T08:21:31.990Z,17.66
2022-10-18T08:23:58.562Z,17.52
2022-10-18T08:26:25.106Z,17.41
2022-10-18T08:29:10.315Z,17.34
2022-10-18T08:31:38.834Z,17.40
2022-10-18T08:34:05.394Z,17.64
2022-10-18T08:36:32.008Z,17.74
2022-10-18T08:38:58.654Z,17.95
2022-10-18T08:41:37.195Z,18.04
2022-10-18T08:44:07.457Z,18.00
2022-10-18T08:46:36.775Z,18.18
2022-10-18T08:49:05.727Z,18.22
2022-10-18T08:51:46.266Z,18.26
2022-10-18T08:54:16.492Z,18.20
2022-10-18T08:56:47.758Z,18.11
2022-10-18T08:59:14.374Z,18.17
2022-10-18T09:01:59.746Z,18.32
2022-10-18T09:05:03.123Z,18.44
2022-10-18T09:07:32.563Z,18.47
2022-10-18T09:10:08.304Z,18.42
2022-10-18T09:13:08.085Z,18.43
2022-10-18T09:15:37.282Z,18.50
2022-10-18T09:18:03.809Z,18.61
2022-10-18T09:20:53.900Z,18.72
2022-10-18T09:23:29.509Z,18.76
2022-10-18T09:26:15.727Z,18.78
2022-10-18T09:29:12.871Z,18.83
2022-10-18T09:32:04.827Z,18.88
2022-10-18T09:34:42.706Z,19.07
2022-10-18T09:37:14.735Z,19.10
2022-10-18T09:39:41.945Z,19.03
2022-10-18T09:42:26.865Z,19.24
2022-10-18T09:44:58.794Z,19.33
2022-10-18T09:47:41.184Z,19.41
2022-10-18T09:50:17.851Z,19.29
2022-10-18T09:52:59.833Z,19.30
2022-10-18T09:55:35.583Z,19.44
2022-10-18T09:58:06.953Z,19.52
2022-10-18T10:00:38.939Z,19.61
2022-10-18T10:03:15.851Z,19.70
2022-10-18T10:05:43.745Z,19.73
2022-10-18T10:08:11.218Z,19.73
2022-10-18T10:10:46.674Z,19.79
2022-10-18T10:13:22.800Z,19.81
2022-10-18T10:15:56.217Z,19.96
2022-10-18T10:18:26.186Z,19.85
2022-10-18T10:20:55.859Z,19.88
2022-10-18T10:23:28.224Z,19.80
2022-10-18T10:25:58.459Z,19.90
2022-10-18T10:28:31.691Z,19.96
2022-10-18T10:31:17.898Z,20.00
2022-10-18T10:33:47.795Z,20.01
2022-10-18T10:36:20.150Z,20.09
2022-10-18T10:39:02.016Z,20.16
2022-10-18T10:41:28.668Z,20.27
2022-10-18T10:43:55.837Z,20.57
2022-10-18T10:46:23.478Z,20.75
2022-10-18T10:49:13.945Z,21.12
2022-10-18T10:51:43.610Z,21.61
2022-10-18T10:54:16.925Z,21.63
2022-10-18T10:57:05.518Z,21.56
2022-10-18T10:59:53.703Z,21.65
2022-10-18T11:02:29.183Z,21.73
2022-10-18T11:04:56.915Z,21.46
2022-10-18T11:07:35.835Z,21.40
2022-10-18T11:10:11.745Z,21.29
2022-10-18T11:12:42.892Z,21.21
2022-10-18T11:15:15.372Z,21.09
2022-10-18T11:18:06.964Z,21.19
2022-10-18T11:20:53.374Z,21.11
2022-10-18T11:23:21.686Z,21.15
2022-10-18T11:26:11.297Z,21.40
2022-10-18T11:29:09.078Z,21.69
2022-10-18T11:31:41.273Z,21.97
2022-10-18T11:34:50.776Z,22.19
2022-10-18T11:37:38.692Z,21.87
2022-10-18T11:40:42.062Z,22.07
2022-10-18T11:43:20.383Z,21.83
2022-10-18T11:46:14.774Z,21.80
2022-10-18T11:48:59.468Z,21.81
2022-10-18T11:52:07.311Z,21.70
2022-10-18T11:54:43.685Z,21.60
2022-10-18T11:57:32.132Z,21.47
2022-10-18T12:00:23.022Z,21.40
2022-10-18T12:03:19.916Z,21.38
2022-10-18T12:05:48.533Z,21.48
2022-10-18T12:08:18.670Z,21.62
2022-10-18T12:11:04.514Z,21.62
2022-10-18T12:13:50.147Z,21.75
2022-10-18T12:16:33.540Z,21.76
2022-10-18T12:19:16.270Z,21.90
2022-10-18T12:21:43.493Z,21.79
2022-10-18T12:24:27.564Z,21.79
2022-10-18T12:26:59.727Z,21.75
2022-10-18T12:29:29.915Z,21.67
2022-10-18T12:32:19.125Z,21.55
2022-10-18T12:34:53.597Z,21.59
2022-10-18T12:37:43.621Z,21.47
2022-10-18T12:40:20.403Z,21.55
2022-10-18T12:42:51.182Z,21.52
2022-10-18T12:45:34.863Z,21.56
2022-10-18T12:48:42.812Z,21.56
2022-10-18T12:51:22.376Z,21.67
2022-10-18T12:54:10.275Z,21.70
2022-10-18T12:56:42.537Z,21.75
2022-10-18T12:59:15.383Z,21.83
2022-10-18T13:01:51.023Z,21.82
2022-10-18T13:04:29.910Z,21.80
2022-10-18T13:07:05.268Z,21.91
2022-10-18T13:09:35.501Z,22.01
2022-10-18T13:12:02.208Z,22.03
2022-10-18T13:15:24.079Z,22.09
2022-10-18T13:18:01.031Z,22.26
2022-10-18T13:20:40.776Z,22.37
2022-10-18T13:23:31.619Z,22.73
2022-10-18T13:26:13.419Z,22.81
2022-10-18T13:29:05.045Z,22.98
2022-10-18T13:31:59.867Z,23.19
2022-10-18T13:34:39.079Z,23.21
2022-10-18T13:37:11.334Z,23.21
2022-10-18T13:39:39.812Z,23.25
2022-10-18T13:42:15.818Z,23.43
2022-10-18T13:44:44.740Z,23.80
2022-10-18T13:47:32.778Z,24.16
2022-10-18T13:50:18.016Z,24.28
2022-10-18T13:53:16.217Z,24.46
2022-10-18T13:56:01.275Z,24.63
2022-10-18T13:58:49.212Z,24.59
2022-10-18T14:01:42.696Z,24.43
2022-10-18T14:04:39.959Z,24.55
2022-10-18T14:07:09.019Z,24.59
2022-10-18T14:09:48.633Z,24.56
2022-10-18T14:12:30.963Z,23.96
2022-10-18T14:15:23.311Z,23.77
2022-10-18T14:18:04.974Z,23.61
2022-10-18T14:21:01.451Z,23.52
2022-10-18T14:23:44.505Z,23.33
2022-10-18T14:26:15.971Z,23.09
2022-10-18T14:28:59.202Z,22.97
2022-10-18T14:31:27.440Z,22.71
2022-10-18T14:33:58.077Z,22.74
2022-10-18T14:36:30.863Z,22.73
2022-10-18T14:39:00.396Z,22.80
2022-10-18T14:41:35.012Z,22.87
2022-10-18T14:44:18.503Z,22.93
2022-10-18T14:46:53.390Z,22.96
2022-10-18T14:49:21.245Z,22.99
2022-10-18T14:51:51.531Z,23.03
2022-10-18T14:54:25.062Z,22.96
2022-10-18T14:56:54.572Z,22.93
2022-10-18T14:59:24.733Z,22.71
2022-10-18T15:01:54.919Z,22.57
2022-10-18T15:04:27.653Z,22.72
2022-10-18T15:06:55.727Z,22.65
2022-10-18T15:09:24.365Z,22.75
2022-10-18T15:11:51.807Z,22.88
2022-10-18T15:14:20.513Z,23.02
2022-10-18T15:16:50.109Z,23.19
2022-10-18T15:19:16.591Z,23.72
2022-10-18T15:22:31.204Z,24.06
2022-10-18T15:25:12.477Z,24.13
2022-10-18T15:27:39.953Z,24.62
2022-10-18T15:30:18.258Z,24.98
2022-10-18T15:32:51.332Z,25.31
2022-10-18T15:35:26.531Z,25.63
2022-10-18T15:37:55.814Z,26.01
2022-10-18T15:40:22.340Z,25.32
2022-10-18T15:42:57.602Z,24.34
2022-10-18T15:45:24.209Z,23.65
2022-10-18T15:48:36.381Z,22.97
2022-10-18T15:51:05.596Z,22.36
2022-10-18T15:53:53.298Z,21.98
2022-10-18T15:56:31.128Z,21.72
2022-10-18T15:59:00.920Z,21.55
2022-10-18T16:01:42.723Z,21.28
2022-10-18T16:04:19.013Z,21.06
2022-10-18T16:06:45.627Z,21.04
2022-10-18T16:09:23.023Z,20.93
2022-10-18T16:11:56.773Z,20.82
2022-10-18T16:14:25.834Z,20.30
2022-10-18T16:17:00.660Z,20.24
2022-10-18T16:19:28.092Z,19.95
2022-10-18T16:21:55.007Z,19.68
2022-10-18T16:24:21.854Z,19.52
2022-10-18T16:26:49.687Z,19.35
2022-10-18T16:29:24.290Z,19.13
2022-10-18T16:31:53.661Z,19.06
2022-10-18T16:34:20.262Z,18.85
2022-10-18T16:36:46.760Z,18.86
2022-10-18T16:39:16.715Z,18.82
2022-10-18T16:41:44.285Z,18.61
2022-10-18T16:44:10.842Z,18.50
2022-10-18T16:46:37.676Z,18.29
2022-10-18T16:49:05.422Z,18.13
2022-10-18T16:51:31.986Z,18.06
2022-10-18T16:53:58.825Z,17.93
2022-10-18T16:56:30.724Z,17.75
2022-10-18T16:58:58.708Z,17.64
2022-10-18T17:01:26.297Z,17.46
2022-10-18T17:03:53.914Z,17.43
2022-10-18T17:06:22.485Z,17.34
2022-10-18T17:08:49.636Z,17.28
2022-10-18T17:11:17.372Z,17.35
2022-10-18T17:13:44.777Z,17.31
2022-10-18T17:16:32.805Z,17.20
2022-10-18T17:19:02.160Z,17.18
2022-10-18T17:21:29.881Z,17.05
2022-10-18T17:24:00.601Z,17.02
2022-10-18T17:26:29.619Z,17.06
2022-10-18T17:29:00.395Z,16.97
2022-10-18T17:31:28.124Z,16.91
2022-10-18T17:33:55.509Z,16.86
2022-10-18T17:36:22.535Z,16.77
2022-10-18T17:38:53.716Z,16.78
2022-10-18T17:41:20.933Z,16.63
2022-10-18T17:49:55.403Z,16.56
2022-10-18T17:56:17.302Z,16.34
2022-10-18T17:58:43.831Z,16.35
2022-10-18T18:01:19.174Z,16.26
2022-10-18T18:03:47.821Z,16.23
2022-10-18T18:06:24.116Z,16.16
2022-10-18T18:08:50.758Z,16.08
2022-10-18T18:11:18.327Z,15.98
2022-10-18T18:13:45.633Z,15.81
2022-10-18T18:16:16.421Z,15.85
2022-10-18T18:18:43.383Z,15.87
2022-10-18T18:21:10.023Z,15.82
2022-10-18T18:23:36.763Z,15.78
2022-10-18T18:26:03.722Z,15.78
2022-10-18T18:28:30.814Z,15.70
2022-10-18T18:30:57.463Z,15.66
2022-10-18T18:33:24.063Z,15.68
2022-10-18T18:35:57.973Z,15.64
2022-10-18T18:38:25.837Z,15.64
2022-10-18T18:41:09.288Z,15.62
2022-10-18T18:43:36.445Z,15.58
2022-10-18T18:46:03.109Z,15.55
2022-10-18T18:48:32.747Z,15.48
2022-10-18T18:50:59.515Z,15.37
2022-10-18T18:53:29.449Z,15.33
2022-10-18T18:56:02.118Z,15.29
2022-10-18T18:58:28.664Z,15.28
2022-10-18T19:00:55.196Z,15.26
2022-10-18T19:03:21.926Z,15.20
2022-10-18T19:05:48.484Z,15.07
2022-10-18T19:08:15.090Z,15.01
2022-10-18T19:10:41.939Z,15.03
2022-10-18T19:13:08.478Z,14.88
2022-10-18T19:15:35.141Z,14.92
2022-10-18T19:18:01.880Z,14.84
2022-10-18T19:20:28.598Z,14.84
2022-10-18T19:22:55.149Z,14.84
2022-10-18T19:25:24.694Z,14.74
2022-10-18T19:27:53.506Z,14.73
2022-10-18T19:30:20.258Z,14.71
2022-10-18T19:32:46.971Z,14.72
2022-10-18T19:35:13.517Z,14.63
2022-10-18T19:37:40.733Z,14.59
2022-10-18T19:40:07.995Z,14.68
2022-10-18T19:42:35.992Z,14.63
2022-10-18T19:45:03.266Z,14.69
2022-10-18T19:47:29.801Z,14.62
2022-10-18T19:49:56.820Z,14.53
2022-10-18T19:52:23.342Z,14.45
2022-10-18T19:54:49.902Z,14.53
2022-10-18T19:57:16.568Z,14.51
2022-10-18T19:59:43.333Z,14.52
2022-10-18T20:02:14.178Z,14.54
2022-10-18T20:04:40.849Z,14.57
2022-10-18T20:07:07.435Z,14.53
2022-10-18T20:09:34.109Z,14.57
2022-10-18T20:12:00.659Z,14.51
2022-10-18T20:14:27.313Z,14.43
2022-10-18T20:16:53.878Z,14.40
2022-10-18T20:19:20.470Z,14.38
2022-10-18T20:21:47.014Z,14.36
2022-10-18T20:24:13.559Z,14.32
2022-10-18T20:26:40.218Z,14.29
2022-10-18T20:29:08.077Z,14.19
2022-10-18T20:31:38.317Z,14.22
2022-10-18T20:34:08.875Z,14.19
2022-10-18T20:36:35.857Z,14.19
2022-10-18T20:39:04.410Z,14.18
2022-10-18T20:41:37.002Z,14.16
2022-10-18T20:44:07.000Z,14.14
2022-10-18T20:46:37.039Z,14.09
2022-10-18T20:49:05.612Z,14.05
2022-10-18T20:51:33.753Z,13.95
2022-10-18T20:54:01.949Z,13.93
2022-10-18T20:56:28.582Z,13.87
2022-10-18T20:58:56.734Z,13.85
2022-10-18T21:01:26.455Z,13.90
2022-10-18T21:03:54.793Z,13.93
2022-10-18T21:06:27.332Z,13.86
2022-10-18T21:09:02.300Z,13.80
2022-10-18T21:11:30.382Z,13.81
2022-10-18T21:14:00.159Z,13.81
2022-10-18T21:16:27.613Z,13.80
2022-10-18T21:18:55.017Z,13.79
2022-10-18T21:21:24.381Z,13.79
2022-10-18T21:23:51.973Z,13.79
2022-10-18T21:26:22.231Z,13.76
2022-10-18T21:28:53.694Z,13.71
2022-10-18T21:31:27.780Z,13.74
2022-10-18T21:33:56.954Z,13.74
2022-10-18T21:36:24.654Z,13.71
2022-10-18T21:38:51.506Z,13.66
2022-10-18T21:41:19.670Z,13.60
2022-10-18T21:43:51.393Z,13.60
2022-10-18T21:46:19.718Z,13.48
2022-10-18T21:48:48.877Z,13.46
2022-10-18T21:51:18.164Z,13.44
2022-10-18T21:53:47.704Z,13.44
2022-10-18T21:56:26.983Z,13.37
2022-10-18T21:58:54.018Z,13.44
2022-10-18T22:01:24.243Z,13.41
2022-10-18T22:03:53.343Z,13.40
2022-10-18T22:06:21.176Z,13.36
2022-10-18T22:08:53.282Z,13.25
2022-10-18T22:11:22.786Z,13.31
2022-10-18T22:13:49.737Z,13.26
2022-10-18T22:16:16.841Z,13.28
2022-10-18T22:18:45.382Z,13.23
2022-10-18T22:21:14.554Z,13.18
2022-10-18T22:23:44.206Z,13.21
2022-10-18T22:26:17.189Z,13.16
2022-10-18T22:28:45.249Z,13.17
2022-10-18T22:31:20.500Z,13.14
2022-10-18T22:33:48.048Z,13.01
2022-10-18T22:36:14.633Z,12.99
2022-10-18T22:38:41.176Z,12.91
2022-10-18T22:41:10.397Z,13.02
2022-10-18T22:43:38.314Z,13.05
2022-10-18T22:46:07.895Z,13.00
2022-10-18T22:48:34.988Z,13.02
2022-10-18T22:51:02.430Z,13.00
2022-10-18T22:53:29.700Z,12.94
2022-10-18T22:55:56.457Z,12.90
2022-10-18T22:58:23.608Z,12.91
2022-10-18T23:00:50.282Z,12.89
2022-10-18T23:03:18.852Z,12.84
2022-10-18T23:05:46.586Z,12.93
2022-10-18T23:08:14.542Z,12.89
2022-10-18T23:10:42.870Z,12.85
2022-10-18T23:13:10.820Z,12.88
2022-10-18T23:15:40.738Z,12.87
2022-10-18T23:18:07.460Z,12.84
2022-10-18T23:20:34.178Z,12.78
2022-10-18T23:23:00.705Z,12.66
2022-10-18T23:25:27.495Z,12.70
2022-10-18T23:27:54.546Z,12.67
2022-10-18T23:30:21.097Z,12.59
2022-10-18T23:32:47.885Z,12.63
2022-10-18T23:35:14.416Z,12.55
2022-10-18T23:37:40.973Z,12.49
2022-10-18T23:40:08.699Z,12.47
2022-10-18T23:42:35.281Z,12.43
2022-10-18T23:45:01.946Z,12.38
2022-10-18T23:47:28.800Z,12.39
2022-10-18T23:49:57.256Z,12.34
2022-10-18T23:52:24.817Z,12.27
2022-10-18T23:54:51.437Z,12.32
2022-10-18T23:57:17.966Z,12.24
2022-10-18T23:59:44.504Z,12.20
